^^
Peaceful Hills Weather Station Historical Data
 
Daily Summary for September 24, 2022 Units:  English    Metric   Both
Daily Weekly Monthly Yearly
  Current: High: Low: Average:
Temperature: 82 °F 98.7 °F 63.8 °F 77.8 °F
Dew Point: 71 °F 72.2 °F 60.3 °F 65.6 °F
Humidity: 69.6% 90% 35% 69%
Wind Speed: 2.4mph 8.8mph 0mph 2.4mph
Wind Gust: 5mph 23mph - -
WindWSW - - SW
Pressure: 29.90 in 30.03 in 29.89 in -
Precipitation: 0.00 in      
 
 
Tabular Data for September 24, 2022
Time Temperature Dew Point Pressure Wind Wind Speed Wind Gust Humidity Rainfall Rate (Hourly)
00:09 71 °F 60.9 °F 30.01 in ESE 1.2 mph 4 mph 70.6% 0.00 in
00:14 70.7 °F 60.8 °F 30.01 in Calm   2 mph 71% 0.00 in
00:19 70.5 °F 61 °F 30.01 in ESE 0.4 mph 4 mph 72% 0.00 in
00:24 70.1 °F 60.8 °F 30.01 in ESE 0.8 mph 4 mph 72.4% 0.00 in
00:29 69.8 °F 60.9 °F 30.01 in ESE 1.2 mph 4 mph 73.4% 0.00 in
00:34 69.7 °F 61 °F 30.01 in Calm   2 mph 74% 0.00 in
00:39 69.7 °F 61 °F 30.01 in Calm   2 mph 74% 0.00 in
00:44 69.7 °F 61 °F 30.01 in ESE 0.8 mph 5 mph 74% 0.00 in
00:49 69.6 °F 60.9 °F 30.01 in ESE 0.8 mph 2 mph 74% 0.00 in
00:54 69.5 °F 61 °F 30.01 in Calm   2 mph 74.4% 0.00 in
00:59 69.4 °F 61.1 °F 30.01 in Calm   2 mph 75% 0.00 in
01:04 69.3 °F 61 °F 30.01 in ESE 1.2 mph 4 mph 75.2% 0.00 in
01:09 69 °F 61.1 °F 30.01 in ESE 2 mph 4 mph 76% 0.00 in
01:14 68.8 °F 60.9 °F 30.01 in ESE 0.4 mph 4 mph 76% 0.00 in
01:19 68.6 °F 61.1 °F 30.01 in ESE 1.2 mph 4 mph 77% 0.00 in
01:24 68.4 °F 61 °F 30.01 in Calm   4 mph 77.2% 0.00 in
01:29 68.2 °F 61.1 °F 30.01 in ESE 1.6 mph 5 mph 78% 0.00 in
01:34 68 °F 60.9 °F 30.01 in Calm   2 mph 78% 0.00 in
01:39 67.8 °F 61 °F 30.01 in ESE 0.4 mph 4 mph 78.8% 0.00 in
01:44 67.7 °F 61 °F 30.01 in ESE 0.8 mph 4 mph 79% 0.00 in
01:49 67.4 °F 60.7 °F 30.01 in ESE 0.8 mph 4 mph 79.2% 0.00 in
01:54 67.1 °F 60.7 °F 30.01 in ESE 0.4 mph 2 mph 80% 0.00 in
01:59 66.9 °F 60.7 °F 30.01 in Calm   2 mph 80.6% 0.00 in
02:04 66.8 °F 60.8 °F 30.00 in ESE 0.8 mph 4 mph 81% 0.00 in
02:09 66.7 °F 60.7 °F 30.00 in Calm   2 mph 81% 0.00 in
02:14 66.6 °F 60.6 °F 30.00 in Calm   2 mph 81.2% 0.00 in
02:19 66.5 °F 60.8 °F 30.00 in Calm     82% 0.00 in
02:24 66.4 °F 60.7 °F 30.00 in Calm     82% 0.00 in
02:29 66.3 °F 60.6 °F 30.00 in Calm     82% 0.00 in
02:34 66.2 °F 60.5 °F 30.00 in Calm     82% 0.00 in
02:39 66.1 °F 60.4 °F 30.00 in Calm     82% 0.00 in
02:44 66 °F 60.6 °F 30.00 in Calm     82.6% 0.00 in
02:49 65.9 °F 60.6 °F 30.00 in Calm     83% 0.00 in
02:54 65.8 °F 60.5 °F 30.00 in Calm     83% 0.00 in
02:59 65.8 °F 60.7 °F 30.00 in Calm     83.6% 0.00 in
03:04 65.7 °F 60.7 °F 30.00 in Calm     84% 0.00 in
03:09 65.6 °F 60.6 °F 30.00 in Calm     84% 0.00 in
03:14 65.5 °F 60.5 °F 30.00 in Calm     84% 0.00 in
03:19 65.4 °F 60.8 °F 30.00 in Calm     85% 0.00 in
03:24 65.3 °F 60.7 °F 30.00 in Calm     85% 0.00 in
03:29 65.3 °F 60.8 °F 29.99 in Calm     85.5% 0.00 in
03:32 65.3 °F 61 °F 29.99 in Calm     86% 0.00 in
03:39 65.2 °F 60.9 °F 29.99 in Calm     86% 0.00 in
03:44 65.2 °F 60.9 °F 29.99 in Calm     86% 0.00 in
03:48 65.1 °F 60.8 °F 29.99 in Calm     86% 0.00 in
03:51 65 °F 60.7 °F 29.99 in Calm     86% 0.00 in
03:59 65 °F 60.7 °F 29.99 in Calm     86% 0.00 in
04:04 65 °F 60.8 °F 29.99 in Calm     86.4% 0.00 in
04:09 64.8 °F 60.6 °F 29.99 in Calm     86% 0.00 in
04:19 64.7 °F 60.4 °F 30.00 in Calm     86% 0.00 in
04:24 64.7 °F 60.7 °F 30.00 in Calm     87% 0.00 in
04:29 64.6 °F 60.6 °F 30.00 in Calm     87% 0.00 in
04:34 64.5 °F 60.5 °F 30.00 in Calm     87% 0.00 in
04:39 64.5 °F 60.5 °F 30.00 in Calm     87% 0.00 in
04:42 64.4 °F 60.4 °F 30.00 in Calm     87% 0.00 in
04:49 64.3 °F 60.5 °F 30.00 in Calm     87.6% 0.00 in
04:54 64.2 °F 60.6 °F 30.01 in Calm     88% 0.00 in
04:59 64.2 °F 60.6 °F 30.01 in Calm     88% 0.00 in
05:03 64.2 °F 60.6 °F 30.01 in Calm     88% 0.00 in
05:09 64.2 °F 60.6 °F 30.01 in Calm     88% 0.00 in
05:13 64.2 °F 60.6 °F 30.01 in Calm     88% 0.00 in
05:18 64.1 °F 60.5 °F 30.01 in Calm     88% 0.00 in
05:24 64.1 °F 60.5 °F 30.01 in Calm     88% 0.00 in
05:29 64.1 °F 60.5 °F 30.01 in Calm     88% 0.00 in
05:34 64 °F 60.4 °F 30.01 in Calm     88% 0.00 in
05:38 64 °F 60.4 °F 30.01 in Calm     88% 0.00 in
05:44 63.9 °F 60.3 °F 30.01 in Calm     88% 0.00 in
05:48 63.9 °F 60.5 °F 30.01 in Calm     88.5% 0.00 in
05:54 63.9 °F 60.5 °F 30.01 in Calm     88.7% 0.00 in
05:59 63.9 °F 60.6 °F 30.01 in Calm     89% 0.00 in
06:04 63.9 °F 60.6 °F 30.01 in Calm     89% 0.00 in
06:09 63.9 °F 60.6 °F 30.01 in Calm     89% 0.00 in
06:14 63.8 °F 60.5 °F 30.02 in Calm     89% 0.00 in
06:19 63.8 °F 60.5 °F 30.02 in Calm     89% 0.00 in
06:24 63.8 °F 60.5 °F 30.02 in Calm     89% 0.00 in
06:29 63.8 °F 60.5 °F 30.02 in Calm     89% 0.00 in
06:34 63.8 °F 60.7 °F 30.02 in Calm     89.4% 0.00 in
06:39 63.9 °F 60.9 °F 30.02 in Calm     90% 0.00 in
06:44 63.9 °F 60.9 °F 30.02 in Calm     90% 0.00 in
06:49 63.9 °F 60.9 °F 30.02 in Calm     90% 0.00 in
06:54 63.9 °F 60.9 °F 30.02 in Calm     90% 0.00 in
06:59 63.9 °F 60.9 °F 30.02 in Calm     90% 0.00 in
07:04 63.8 °F 60.7 °F 30.02 in Calm     89.6% 0.00 in
07:09 63.8 °F 60.8 °F 30.02 in Calm     90% 0.00 in
07:14 63.8 °F 60.8 °F 30.02 in Calm     90% 0.00 in
07:19 63.9 °F 60.9 °F 30.02 in Calm     90% 0.00 in
07:24 63.9 °F 60.9 °F 30.02 in Calm     90% 0.00 in
07:29 63.9 °F 60.9 °F 30.02 in Calm     90% 0.00 in
07:34 64 °F 61 °F 30.02 in Calm     90% 0.00 in
07:39 64 °F 61 °F 30.02 in Calm     90% 0.00 in
07:44 64.1 °F 61.1 °F 30.03 in Calm     90% 0.00 in
07:49 64.2 °F 61.2 °F 30.03 in Calm     90% 0.00 in
07:54 64.3 °F 61.3 °F 30.03 in Calm     90% 0.00 in
07:59 64.5 °F 61.5 °F 30.03 in Calm     90% 0.00 in
08:04 64.7 °F 61.7 °F 30.03 in Calm     90% 0.00 in
08:09 65.1 °F 62.1 °F 30.03 in Calm     90% 0.00 in
08:14 65.7 °F 62.7 °F 30.03 in Calm     90% 0.00 in
08:19 66.4 °F 63.2 °F 30.03 in Calm     89.4% 0.00 in
08:24 67.1 °F 63.7 °F 30.03 in Calm     89% 0.00 in
08:29 67.9 °F 64.3 °F 30.03 in Calm     88.4% 0.00 in
08:34 68.8 °F 65 °F 30.03 in Calm     87.8% 0.00 in
08:39 69.5 °F 65.5 °F 30.03 in Calm     87% 0.00 in
08:44 70.3 °F 65.9 °F 30.03 in Calm     86% 0.00 in
08:49 71.1 °F 66.5 °F 30.03 in Calm     85.2% 0.00 in
08:54 71.7 °F 66.5 °F 30.03 in Calm     83.6% 0.00 in
08:59 72.6 °F 66.9 °F 30.02 in ESE 0.8 mph 2 mph 82.4% 0.00 in
09:04 73.5 °F 67.2 °F 30.02 in SSE 1.6 mph 4 mph 80.8% 0.00 in
09:09 74.4 °F 67.6 °F 30.02 in SW 1.6 mph 4 mph 79.4% 0.00 in
09:14 75.1 °F 67.9 °F 30.02 in SW 1.2 mph 4 mph 78.2% 0.00 in
09:19 75.9 °F 68.1 °F 30.02 in SW 0.8 mph 4 mph 76.8% 0.00 in
09:24 76.6 °F 68.5 °F 30.02 in SW 0.8 mph 4 mph 76% 0.00 in
09:29 77.3 °F 68.7 °F 30.02 in SW 1.6 mph 4 mph 74.8% 0.00 in
09:34 78 °F 68.9 °F 30.02 in SW 1.2 mph 4 mph 73.8% 0.00 in
09:39 78.7 °F 69.3 °F 30.02 in SW 1.2 mph 4 mph 73% 0.00 in
09:44 79.5 °F 69.8 °F 30.02 in West 2.2 mph 5 mph 72.2% 0.00 in
09:49 80.3 °F 70.3 °F 30.02 in WSW 2.4 mph 5 mph 71.6% 0.00 in
09:54 81.2 °F 70.7 °F 30.02 in South 4.2 mph 10 mph 70.4% 0.00 in
09:59 82.2 °F 71.1 °F 30.02 in WSW 4.6 mph 12 mph 69.2% 0.00 in
10:04 82.7 °F 71.3 °F 30.02 in SW 3.2 mph 7 mph 68.4% 0.00 in
10:09 83.1 °F 71.4 °F 30.03 in WNW 3.2 mph 7 mph 67.8% 0.00 in
10:14 83.6 °F 71.4 °F 30.03 in WSW 4 mph 9 mph 66.8% 0.00 in
10:19 84.2 °F 71.7 °F 30.02 in West 4.6 mph 16 mph 66.2% 0.00 in
10:24 84.5 °F 71.5 °F 30.02 in WSW 3.4 mph 16 mph 65.2% 0.00 in
10:29 84.5 °F 71.4 °F 30.03 in WSW 3.2 mph 9 mph 65% 0.00 in
10:34 84.7 °F 71.6 °F 30.03 in SSW 5 mph 10 mph 64.8% 0.00 in
10:39 85 °F 71.5 °F 30.02 in South 3.4 mph 10 mph 64% 0.00 in
10:44 85.3 °F 71.5 °F 30.02 in SW 5.6 mph 12 mph 63.6% 0.00 in
10:49 85.6 °F 71.7 °F 30.02 in WSW 4.4 mph 9 mph 63.2% 0.00 in
10:54 86.2 °F 71.7 °F 30.02 in WNW 4 mph 7 mph 62.2% 0.00 in
10:59 86.7 °F 72.1 °F 30.02 in WSW 4.8 mph 10 mph 62% 0.00 in
11:04 87 °F 71.8 °F 30.02 in SW 6 mph 18 mph 60.8% 0.00 in
11:09 87.2 °F 72 °F 30.02 in West 5 mph 18 mph 60.8% 0.00 in
11:14 87.3 °F 71.7 °F 30.01 in West 6 mph 12 mph 60% 0.00 in
11:19 87.5 °F 72 °F 30.01 in West 4.4 mph 12 mph 60.2% 0.00 in
11:24 87.9 °F 71.8 °F 30.01 in West 6.2 mph 12 mph 59% 0.00 in
11:29 88.3 °F 72.1 °F 30.01 in West 5 mph 10 mph 58.8% 0.00 in
11:34 88.5 °F 71.8 °F 30.01 in WSW 4.8 mph 10 mph 58% 0.00 in
11:39 88.7 °F 71.7 °F 30.01 in West 5.4 mph 10 mph 57.4% 0.00 in
11:44 89 °F 71.9 °F 30.01 in SW 5 mph 16 mph 57.2% 0.00 in
11:49 89.6 °F 72.2 °F 30.00 in WSW 4.6 mph 10 mph 56.8% 0.00 in
11:54 89.9 °F 72 °F 30.00 in SSW 6.2 mph 14 mph 55.8% 0.00 in
11:59 90.2 °F 71.9 °F 30.00 in WNW 6 mph 14 mph 55.2% 0.00 in
12:04 90.1 °F 71.7 °F 30.00 in WNW 6.6 mph 14 mph 54.8% 0.00 in
12:09 90.7 °F 72 °F 29.99 in West 5.2 mph 10 mph 54.4% 0.00 in
12:14 91.4 °F 71.9 °F 29.99 in West 3.2 mph 9 mph 53% 0.00 in
12:19 91.7 °F 71.8 °F 29.99 in West 7 mph 12 mph 52.4% 0.00 in
12:24 91.5 °F 71.2 °F 29.99 in SW 5.8 mph 14 mph 51.6% 0.00 in
12:29 91.7 °F 71.4 °F 29.99 in WNW 5 mph 14 mph 51.6% 0.00 in
12:34 92.1 °F 71.5 °F 29.98 in SW 7.2 mph 14 mph 51.2% 0.00 in
12:39 92.2 °F 71.6 °F 29.98 in SSW 5.8 mph 16 mph 51.2% 0.00 in
12:44 92.7 °F 71.7 °F 29.98 in WSW 3.6 mph 10 mph 50.6% 0.00 in
12:49 93.4 °F 71.4 °F 29.98 in WSW 4.2 mph 10 mph 49% 0.00 in
12:54 93.6 °F 71.2 °F 29.97 in WSW 4.2 mph 12 mph 48.4% 0.00 in
12:59 93.6 °F 70.9 °F 29.97 in WSW 5.6 mph 18 mph 47.8% 0.00 in
13:04 93.5 °F 71 °F 29.97 in SW 6.2 mph 18 mph 48.2% 0.00 in
13:09 93.6 °F 70.5 °F 29.97 in WSW 6.4 mph 18 mph 47.2% 0.00 in
13:14 93.8 °F 70.6 °F 29.97 in WSW 7.2 mph 14 mph 47.2% 0.00 in
13:19 93.8 °F 70.4 °F 29.96 in WSW 5 mph 14 mph 46.8% 0.00 in
13:24 93.9 °F 70.3 °F 29.96 in West 4.4 mph 10 mph 46.6% 0.00 in
13:29 94.4 °F 70 °F 29.96 in West 4.4 mph 12 mph 45.4% 0.00 in
13:34 94.8 °F 70.2 °F 29.96 in WNW 5 mph 10 mph 45.2% 0.00 in
13:39 95 °F 70.3 °F 29.96 in SW 5.4 mph 10 mph 45% 0.00 in
13:44 95.5 °F 70.8 °F 29.95 in WSW 5.4 mph 12 mph 45% 0.00 in
13:49 95.9 °F 70.6 °F 29.95 in SW 6 mph 12 mph 44.2% 0.00 in
13:54 95.9 °F 70.1 °F 29.95 in WSW 4.6 mph 12 mph 43.4% 0.00 in
13:59 95.9 °F 69.3 °F 29.95 in SW 6 mph 18 mph 42.4% 0.00 in
14:04 96 °F 69.7 °F 29.94 in WSW 6 mph 18 mph 42.8% 0.00 in
14:09 96.1 °F 69.3 °F 29.94 in SSW 3.8 mph 10 mph 42% 0.00 in
14:14 96.5 °F 69.8 °F 29.94 in South 6.2 mph 12 mph 42.2% 0.00 in
14:19 96.9 °F 69.1 °F 29.94 in SW 5.6 mph 12 mph 40.8% 0.00 in
14:24 96.9 °F 69 °F 29.93 in WSW 5.2 mph 14 mph 40.6% 0.00 in
14:29 97.2 °F 69 °F 29.93 in SW 4.4 mph 9 mph 40.2% 0.00 in
14:34 97.3 °F 68.2 °F 29.93 in SW 6.6 mph 16 mph 39% 0.00 in
14:39 97.3 °F 68.2 °F 29.93 in WSW 4.6 mph 10 mph 39% 0.00 in
14:44 97.5 °F 68.7 °F 29.92 in WSW 6.6 mph 18 mph 39.4% 0.00 in
14:49 97.4 °F 68.5 °F 29.92 in SW 6 mph 10 mph 39.2% 0.00 in
14:54 97.5 °F 67.8 °F 29.92 in SW 5.2 mph 10 mph 38.2% 0.00 in
14:59 97.9 °F 68.7 °F 29.91 in WSW 5.2 mph 10 mph 39% 0.00 in
15:04 98.2 °F 69 °F 29.91 in SW 4.4 mph 10 mph 39% 0.00 in
15:09 98.7 °F 69 °F 29.91 in NW 4.2 mph 9 mph 38.4% 0.00 in
15:14 98.6 °F 68.6 °F 29.91 in WSW 4.2 mph 9 mph 38% 0.00 in
15:19 98.7 °F 67.8 °F 29.91 in SW 7 mph 14 mph 36.8% 0.00 in
15:24 98.5 °F 66.8 °F 29.90 in WSW 4.8 mph 16 mph 35.8% 0.00 in
15:29 98.4 °F 66 °F 29.90 in West 4.8 mph 10 mph 35% 0.00 in
15:34 98.3 °F 66.7 °F 29.90 in West 5.2 mph 10 mph 35.8% 0.00 in
15:39 98.2 °F 66.8 °F 29.90 in WSW 4.4 mph 9 mph 36.2% 0.00 in
15:44 98.3 °F 67.9 °F 29.89 in WSW 5.4 mph 12 mph 37.4% 0.00 in
15:49 97.4 °F 68.7 °F 29.89 in WNW 7.2 mph 12 mph 39.6% 0.00 in
15:54 96 °F 68.6 °F 29.89 in West 4.4 mph 9 mph 41.2% 0.00 in
15:59 95.6 °F 68.2 °F 29.89 in WNW 4.4 mph 7 mph 41.2% 0.00 in
16:04 95.5 °F 68.2 °F 29.89 in West 4.2 mph 7 mph 41.2% 0.00 in
16:09 95 °F 67.6 °F 29.89 in NW 8.6 mph 19 mph 41% 0.00 in
16:14 93.9 °F 67.4 °F 29.90 in WNW 6.6 mph 21 mph 42.2% 0.00 in
16:19 91.6 °F 68.8 °F 29.90 in WNW 8.4 mph 21 mph 47.6% 0.00 in
16:24 88.7 °F 68.6 °F 29.90 in NNW 5.8 mph 12 mph 51.6% 0.00 in
16:29 86.9 °F 67.8 °F 29.90 in WNW 7.4 mph 12 mph 53.2% 0.00 in
16:34 85.7 °F 66.7 °F 29.91 in West 8.8 mph 23 mph 53.2% 0.00 in
16:39 84.7 °F 68 °F 29.91 in NW 7.2 mph 12 mph 57.6% 0.00 in
16:44 82.5 °F 68.9 °F 29.90 in NW 5.6 mph 9 mph 63.6% 0.00 in
16:48 81 °F 68.3 °F 29.90 in NNW 4.5 mph 9 mph 65.3% 0.00 in
16:54 80.8 °F 67.2 °F 29.90 in NNW 6 mph 10 mph 63.4% 0.00 in
16:59 81.8 °F 67 °F 29.90 in NW 6 mph 10 mph 61% 0.00 in
17:04 82.7 °F 67 °F 29.90 in NNW 2 mph 5 mph 59.2% 0.00 in
17:09 83.2 °F 66.7 °F 29.89 in NNW 2 mph 5 mph 57.6% 0.00 in
17:14 83.6 °F 67.3 °F 29.89 in NNW 2 mph 4 mph 58% 0.00 in
17:19 83.9 °F 67.2 °F 29.90 in WSW 3.8 mph 7 mph 57.4% 0.00 in
17:24 84.1 °F 68.1 °F 29.90 in SW 3 mph 7 mph 58.8% 0.00 in
17:29 83.5 °F 69.1 °F 29.89 in NNW 3.6 mph 9 mph 62% 0.00 in
17:34 82.9 °F 69.6 °F 29.89 in West 2.4 mph 5 mph 64.2% 0.00 in
17:39 82.9 °F 70.4 °F 29.89 in South 4.2 mph 7 mph 66.2% 0.00 in
17:44 82.6 °F 70.3 °F 29.89 in SSE 4.4 mph 7 mph 66.4% 0.00 in
17:49 82.4 °F 70.7 °F 29.89 in SSE 2.8 mph 5 mph 67.8% 0.00 in
17:54 82.3 °F 71.2 °F 29.89 in SSE 2 mph 5 mph 69.4% 0.00 in
17:59 82.1 °F 71.4 °F 29.89 in SSE 0.4 mph 4 mph 70.2% 0.00 in
18:04 82 °F 71.4 °F 29.89 in Calm   2 mph 70.4% 0.00 in
18:09 82 °F 71.3 °F 29.89 in SSE 0.4 mph 2 mph 70.2% 0.00 in
18:14 82.1 °F 71 °F 29.90 in SSW 3.8 mph 5 mph 69.2% 0.00 in
18:19 82 °F 71 °F 29.90 in WSW 2.4 mph 5 mph 69.6% 0.00 in
Compliments of Weather Underground - 2 mb